Antakya, Turkey
Current Conditions -  °F | °C
As of 4:10 AM on Monday 22 Dec 2014 (Local Time) from LTDA Reporting Station
Light Rain Light Rain  
Wind Chill: 48°   Ceiling: 800
Heat Index: 48°   Visibility: 2.5mi
Dew Point: 46°   Wind: 0mph
Humidity: 93%   Direction: NA
Pressure: 30.03"   Gusts: NA
Location:  36.2°N, 36.15°E
Report Text: LTDA 220210Z 00000KT 4000 -RA BR BKN008 09/08 Q1017 RMK RWY04 00000KT
Loading
Personal Weather Stations






























Interactive Weather Map New forecast layout! Learn more

10-Day Weather Forecast

Advertisements
Track Severe Weather on mobile